Time;durP1;ratioP1;P1;durP2;ratioP2;P2;SDS_P1;SDS_P2;PMS_P1;PMS_P2;Temp;Humidity;BMP_temperature;BMP_pressure;BME280_temperature;BME280_humidity;BME280_pressure;Samples;Min_cycle;Max_cycle;Signal;HPM_P1;HPM_P2
2022/07/04 00:00:45;;;;;;;;;;;23.80;80.70;;;;;;4975694;28;19961;-96
2022/07/04 00:03:11;;;;;;;;;;;23.70;81.00;;;;;;4975955;28;19950;-96
2022/07/04 00:05:36;;;;;;;;;;;23.60;81.00;;;;;;4975918;28;19945;-96
2022/07/04 00:08:02;;;;;;;;;;;23.60;79.80;;;;;;4975652;28;19947;-96
2022/07/04 00:10:27;;;;;;;;;;;23.60;80.10;;;;;;4975893;28;19940;-96
2022/07/04 00:12:53;;;;;;;;;;;23.60;80.10;;;;;;4975646;28;19942;-95
2022/07/04 00:15:18;;;;;;;;;;;23.50;80.10;;;;;;4973987;28;19949;-96
2022/07/04 00:17:44;;;;;;;;;;;23.50;79.90;;;;;;4975685;28;19943;-96
2022/07/04 00:20:10;;;;;;;;;;;23.50;80.90;;;;;;4975692;28;20474;-96
2022/07/04 00:22:36;;;;;;;;;;;23.40;81.40;;;;;;4975967;28;19943;-96
2022/07/04 00:25:02;;;;;;;;;;;23.30;81.90;;;;;;4975451;28;19942;-96
2022/07/04 00:27:28;;;;;;;;;;;23.30;82.10;;;;;;4975627;28;19941;-96
2022/07/04 00:29:53;;;;;;;;;;;23.20;81.90;;;;;;4974135;28;20426;-96
2022/07/04 00:32:19;;;;;;;;;;;23.20;81.90;;;;;;4975648;28;20317;-96
2022/07/04 00:34:44;;;;;;;;;;;23.00;81.50;;;;;;4975485;28;20014;-96
2022/07/04 00:37:10;;;;;;;;;;;23.00;81.40;;;;;;4975713;28;19943;-96
2022/07/04 00:39:36;;;;;;;;;;;23.00;81.30;;;;;;4975108;28;19967;-96
2022/07/04 00:42:01;;;;;;;;;;;23.20;81.10;;;;;;4975194;28;19942;-96
2022/07/04 00:44:27;;;;;;;;;;;23.30;80.70;;;;;;4975197;28;19999;-96
2022/07/04 00:46:53;;;;;;;;;;;23.30;81.00;;;;;;4974946;28;19950;-96
2022/07/04 00:49:18;;;;;;;;;;;23.30;81.40;;;;;;4975052;28;20397;-96
2022/07/04 00:51:44;;;;;;;;;;;23.30;81.20;;;;;;4974912;28;20305;-96
2022/07/04 00:54:11;;;;;;;;;;;23.40;81.10;;;;;;4975188;28;20020;-96
2022/07/04 00:56:37;;;;;;;;;;;23.30;81.10;;;;;;4975046;28;19951;-95
2022/07/04 00:59:03;;;;;;;;;;;23.30;81.20;;;;;;4973442;28;19983;-96
2022/07/04 01:01:29;;;;;;;;;;;23.30;81.40;;;;;;4976089;28;19948;-96
2022/07/04 01:03:55;;;;;;;;;;;23.30;81.60;;;;;;4978939;28;19951;-96
2022/07/04 01:06:21;;;;;;;;;;;23.30;81.60;;;;;;4978724;28;19945;-96
2022/07/04 01:08:47;;;;;;;;;;;23.30;82.50;;;;;;4978464;28;19943;-96
2022/07/04 01:11:12;;;;;;;;;;;23.30;82.30;;;;;;4978768;28;20036;-96
2022/07/04 01:13:40;;;;;;;;;;;23.40;81.80;;;;;;4978434;28;19946;-96
2022/07/04 01:16:06;;;;;;;;;;;23.50;82.10;;;;;;4978570;28;19950;-96
2022/07/04 01:18:32;;;;;;;;;;;23.50;82.70;;;;;;4978096;28;19937;-96
2022/07/04 01:20:57;;;;;;;;;;;23.50;82.40;;;;;;4978351;28;19969;-96
2022/07/04 01:23:23;;;;;;;;;;;23.50;82.70;;;;;;4978064;28;19945;-95
2022/07/04 01:25:50;;;;;;;;;;;23.30;83.10;;;;;;4978191;28;19959;-96
2022/07/04 01:28:15;;;;;;;;;;;23.30;83.10;;;;;;4977137;28;19943;-95
2022/07/04 01:30:41;;;;;;;;;;;23.30;83.00;;;;;;4978507;28;20303;-96
2022/07/04 01:33:07;;;;;;;;;;;23.20;83.30;;;;;;4977833;28;20017;-96
2022/07/04 01:35:32;;;;;;;;;;;23.20;82.70;;;;;;4978434;28;20036;-96
2022/07/04 01:37:58;;;;;;;;;;;23.30;82.70;;;;;;4977836;28;19944;-96
2022/07/04 01:40:23;;;;;;;;;;;23.30;82.80;;;;;;4976462;28;19970;-96
2022/07/04 01:42:49;;;;;;;;;;;23.40;81.90;;;;;;4978269;28;19945;-96
2022/07/04 01:45:15;;;;;;;;;;;23.50;83.00;;;;;;4978182;28;20042;-96
2022/07/04 01:47:40;;;;;;;;;;;23.50;83.10;;;;;;4977914;28;19979;-96
2022/07/04 01:50:07;;;;;;;;;;;23.50;83.30;;;;;;4977620;28;20289;-96
2022/07/04 01:52:33;;;;;;;;;;;23.40;83.60;;;;;;4977666;28;19968;-95
2022/07/04 01:54:58;;;;;;;;;;;23.30;83.50;;;;;;4977751;28;20414;-96
2022/07/04 01:57:24;;;;;;;;;;;23.30;82.80;;;;;;4978007;28;20408;-96
2022/07/04 02:02:34;;;;;;;;;;;23.40;83.20;;;;;;4996750;28;19946;-95
2022/07/04 02:04:59;;;;;;;;;;;23.50;83.20;;;;;;4997049;28;20305;-96
2022/07/04 02:07:25;;;;;;;;;;;23.50;83.10;;;;;;4996724;28;19944;-96
2022/07/04 02:09:51;;;;;;;;;;;23.30;82.80;;;;;;4996770;28;19985;-96
2022/07/04 02:15:00;;;;;;;;;;;23.20;83.10;;;;;;4997208;28;19960;-96
2022/07/04 02:17:26;;;;;;;;;;;23.20;83.90;;;;;;4979353;28;20320;-96
2022/07/04 02:19:52;;;;;;;;;;;23.20;83.80;;;;;;4996719;28;19967;-96
2022/07/04 02:22:17;;;;;;;;;;;23.30;83.70;;;;;;4997089;28;19940;-96
2022/07/04 02:24:43;;;;;;;;;;;23.40;83.90;;;;;;4996416;28;20340;-96
2022/07/04 02:27:09;;;;;;;;;;;23.30;83.60;;;;;;4996996;28;19991;-96
2022/07/04 02:29:34;;;;;;;;;;;23.10;83.40;;;;;;4996104;28;19952;-95
2022/07/04 02:32:00;;;;;;;;;;;23.10;83.40;;;;;;4996257;28;19940;-96
2022/07/04 02:34:26;;;;;;;;;;;23.00;83.30;;;;;;4996677;28;20436;-96
2022/07/04 02:36:51;;;;;;;;;;;23.00;82.30;;;;;;4996030;28;20419;-96
2022/07/04 02:39:17;;;;;;;;;;;23.00;82.60;;;;;;4978681;28;20475;-96
2022/07/04 02:41:42;;;;;;;;;;;23.10;82.70;;;;;;4996302;28;20398;-96
2022/07/04 02:44:08;;;;;;;;;;;23.20;82.20;;;;;;4996305;28;19946;-96
2022/07/04 02:46:33;;;;;;;;;;;23.20;82.10;;;;;;4978337;28;19998;-96
2022/07/04 02:48:59;;;;;;;;;;;23.30;81.60;;;;;;4996569;28;19944;-96
2022/07/04 02:51:25;;;;;;;;;;;23.30;81.40;;;;;;4995924;28;20363;-96
2022/07/04 02:53:51;;;;;;;;;;;23.30;81.40;;;;;;4996093;28;19944;-96
2022/07/04 02:56:17;;;;;;;;;;;23.30;80.40;;;;;;4978195;28;19951;-95
2022/07/04 02:58:42;;;;;;;;;;;23.30;80.20;;;;;;4995493;28;20004;-96
2022/07/04 03:01:08;;;;;;;;;;;23.30;80.40;;;;;;4994419;28;19957;-96
2022/07/04 03:03:33;;;;;;;;;;;23.30;79.90;;;;;;4995835;28;19937;-96
2022/07/04 03:05:59;;;;;;;;;;;23.30;80.50;;;;;;4995528;28;19940;-96
2022/07/04 03:08:25;;;;;;;;;;;23.30;80.30;;;;;;4995710;28;20401;-96
2022/07/04 03:10:51;;;;;;;;;;;23.30;79.70;;;;;;4995340;28;19940;-96
2022/07/04 03:13:17;;;;;;;;;;;23.30;79.70;;;;;;4995385;28;20426;-95
2022/07/04 03:15:42;;;;;;;;;;;23.40;79.80;;;;;;4995351;28;19942;-96
2022/07/04 03:18:08;;;;;;;;;;;23.30;79.10;;;;;;4995530;28;19940;-96
2022/07/04 03:20:33;;;;;;;;;;;23.40;79.90;;;;;;4995449;28;19964;-96
2022/07/04 03:22:59;;;;;;;;;;;23.40;79.50;;;;;;4995244;28;19990;-96
2022/07/04 03:25:24;;;;;;;;;;;23.30;79.00;;;;;;4994187;28;20360;-95
2022/07/04 03:27:50;;;;;;;;;;;23.20;78.50;;;;;;4977756;28;20317;-96
2022/07/04 03:30:15;;;;;;;;;;;23.20;76.60;;;;;;4995402;28;20031;-96
2022/07/04 03:32:41;;;;;;;;;;;23.10;78.00;;;;;;4995072;28;19939;-96
2022/07/04 03:35:07;;;;;;;;;;;23.10;79.10;;;;;;4995631;28;20015;-96
2022/07/04 03:37:32;;;;;;;;;;;23.20;80.40;;;;;;4995020;28;19943;-96
2022/07/04 03:39:58;;;;;;;;;;;23.20;80.80;;;;;;4995142;28;19962;-96
2022/07/04 03:42:23;;;;;;;;;;;23.20;81.00;;;;;;4994964;28;19996;-96
2022/07/04 03:44:49;;;;;;;;;;;23.20;81.20;;;;;;4995175;28;19948;-96
2022/07/04 03:47:14;;;;;;;;;;;23.20;81.40;;;;;;4977387;28;20006;-96
2022/07/04 03:49:40;;;;;;;;;;;23.10;81.70;;;;;;4995117;28;19942;-96
2022/07/04 03:52:06;;;;;;;;;;;23.00;81.70;;;;;;4994708;28;20287;-96
2022/07/04 03:54:31;;;;;;;;;;;23.00;81.70;;;;;;4995147;28;19947;-96
2022/07/04 03:56:57;;;;;;;;;;;22.90;82.20;;;;;;4994747;28;19955;-96
2022/07/04 03:59:23;;;;;;;;;;;22.80;80.50;;;;;;4994564;28;20473;-96
2022/07/04 04:01:48;;;;;;;;;;;22.80;77.90;;;;;;4995223;28;19940;-96
2022/07/04 04:06:58;;;;;;;;;;;22.80;79.50;;;;;;4994647;28;20033;-96
2022/07/04 04:09:24;;;;;;;;;;;22.80;76.90;;;;;;4995181;28;20324;-96
2022/07/04 04:11:53;;;;;;;;;;;22.80;77.10;;;;;;4994847;28;20052;-96
2022/07/04 04:14:19;;;;;;;;;;;22.80;77.00;;;;;;4994809;28;19956;-95
2022/07/04 04:16:44;;;;;;;;;;;22.80;77.00;;;;;;4994802;28;19938;-95
2022/07/04 04:19:10;;;;;;;;;;;22.80;77.40;;;;;;4994727;28;20412;-96
2022/07/04 04:21:36;;;;;;;;;;;22.80;78.00;;;;;;4976997;28;19939;-96
2022/07/04 04:24:02;;;;;;;;;;;22.90;78.10;;;;;;4994635;28;20364;-96
2022/07/04 04:26:28;;;;;;;;;;;22.90;78.30;;;;;;4976918;28;19968;-96
2022/07/04 04:28:54;;;;;;;;;;;23.00;78.20;;;;;;4994996;28;20040;-96
2022/07/04 04:31:19;;;;;;;;;;;23.10;77.60;;;;;;4976998;28;20397;-96
2022/07/04 04:33:45;;;;;;;;;;;23.30;78.50;;;;;;4994752;28;19959;-96
2022/07/04 04:36:11;;;;;;;;;;;23.30;77.90;;;;;;4996801;28;20414;-96
2022/07/04 04:38:36;;;;;;;;;;;23.40;76.60;;;;;;4998890;28;19939;-96
2022/07/04 04:41:02;;;;;;;;;;;23.60;77.80;;;;;;4980534;28;20017;-96
2022/07/04 04:43:28;;;;;;;;;;;23.60;79.40;;;;;;4998483;28;19949;-95
2022/07/04 04:45:53;;;;;;;;;;;23.70;79.00;;;;;;4998126;28;19951;-95
2022/07/04 04:48:19;;;;;;;;;;;23.70;78.10;;;;;;4998748;28;20017;-96
2022/07/04 04:50:44;;;;;;;;;;;23.70;77.40;;;;;;4998177;28;19953;-96
2022/07/04 04:53:10;;;;;;;;;;;23.70;77.70;;;;;;4998577;28;20006;-96
2022/07/04 04:55:36;;;;;;;;;;;23.80;78.60;;;;;;4980299;28;20039;-95
2022/07/04 04:58:01;;;;;;;;;;;23.70;76.10;;;;;;4980156;28;20507;-95
2022/07/04 05:00:27;;;;;;;;;;;23.80;76.50;;;;;;4997792;28;20332;-95
2022/07/04 05:02:52;;;;;;;;;;;23.80;75.90;;;;;;4997629;28;19994;-95
2022/07/04 05:05:18;;;;;;;;;;;23.90;75.50;;;;;;4997679;28;19951;-96
2022/07/04 05:07:44;;;;;;;;;;;23.90;75.20;;;;;;4997960;28;19939;-96
2022/07/04 05:10:09;;;;;;;;;;;24.00;73.60;;;;;;4980230;28;20002;-96
2022/07/04 05:12:35;;;;;;;;;;;24.10;73.30;;;;;;4998031;28;19981;-96
2022/07/04 05:15:01;;;;;;;;;;;24.20;74.00;;;;;;4997621;28;19939;-96
2022/07/04 05:17:26;;;;;;;;;;;24.30;73.90;;;;;;4998118;28;19950;-96
2022/07/04 05:19:52;;;;;;;;;;;24.30;73.10;;;;;;4997562;28;19963;-96
2022/07/04 05:22:17;;;;;;;;;;;24.40;72.80;;;;;;4998217;28;19940;-96
2022/07/04 05:24:43;;;;;;;;;;;24.50;73.30;;;;;;4998092;28;19947;-96
2022/07/04 05:27:09;;;;;;;;;;;24.50;74.20;;;;;;4979961;28;19968;-96
2022/07/04 05:29:34;;;;;;;;;;;24.60;74.30;;;;;;4997760;28;19950;-96
2022/07/04 05:32:00;;;;;;;;;;;24.60;74.20;;;;;;4998061;28;20116;-96
2022/07/04 05:34:26;;;;;;;;;;;24.70;73.10;;;;;;4998096;28;20301;-96
2022/07/04 05:36:51;;;;;;;;;;;24.80;72.00;;;;;;4997620;28;19941;-95
2022/07/04 05:39:17;;;;;;;;;;;24.90;71.10;;;;;;4998285;28;19986;-96
2022/07/04 05:41:42;;;;;;;;;;;24.90;69.70;;;;;;4999982;28;20403;-96
2022/07/04 05:44:08;;;;;;;;;;;25.10;69.70;;;;;;4998367;28;19941;-96
2022/07/04 05:46:33;;;;;;;;;;;25.20;70.10;;;;;;4997500;28;20029;-97
2022/07/04 05:48:59;;;;;;;;;;;25.30;71.10;;;;;;4974552;28;20125;-96
2022/07/04 05:51:25;;;;;;;;;;;25.50;70.50;;;;;;4997287;28;20418;-96
2022/07/04 05:53:51;;;;;;;;;;;25.70;69.70;;;;;;4979134;28;19946;-96
2022/07/04 05:56:16;;;;;;;;;;;25.80;69.60;;;;;;4997413;28;19946;-96
2022/07/04 05:58:42;;;;;;;;;;;25.80;70.00;;;;;;4996544;28;20356;-96
2022/07/04 06:01:08;;;;;;;;;;;26.00;69.90;;;;;;4979376;28;20361;-96
2022/07/04 06:03:36;;;;;;;;;;;26.00;68.80;;;;;;4997667;28;19941;-95
2022/07/04 06:06:02;;;;;;;;;;;26.10;67.30;;;;;;4998694;28;19953;-96
2022/07/04 06:08:28;;;;;;;;;;;26.20;67.30;;;;;;4997334;28;19942;-96
2022/07/04 06:10:54;;;;;;;;;;;26.30;66.60;;;;;;4998308;28;19943;-96
2022/07/04 06:13:19;;;;;;;;;;;26.30;64.60;;;;;;4998719;28;19946;-95
2022/07/04 06:15:45;;;;;;;;;;;26.40;63.80;;;;;;4997896;28;19947;-95
2022/07/04 06:18:12;;;;;;;;;;;26.50;63.30;;;;;;4997330;28;19961;-95
2022/07/04 06:20:39;;;;;;;;;;;26.60;61.50;;;;;;4997910;28;20013;-96
2022/07/04 06:23:05;;;;;;;;;;;26.70;62.20;;;;;;4980749;28;20418;-96
2022/07/04 06:25:30;;;;;;;;;;;26.70;61.70;;;;;;4996950;28;19959;-96
2022/07/04 06:27:56;;;;;;;;;;;26.80;61.40;;;;;;4997050;28;20415;-96
2022/07/04 06:30:22;;;;;;;;;;;26.90;62.20;;;;;;4996979;28;20016;-96
2022/07/04 06:32:49;;;;;;;;;;;26.90;62.80;;;;;;4996933;28;19950;-96
2022/07/04 06:38:02;;;;;;;;;;;27.10;60.90;;;;;;4996820;28;20417;-96
2022/07/04 06:40:27;;;;;;;;;;;27.30;59.50;;;;;;4996725;28;19966;-96
2022/07/04 06:42:53;;;;;;;;;;;27.50;61.10;;;;;;4978746;28;19940;-96
2022/07/04 06:45:19;;;;;;;;;;;27.50;59.60;;;;;;4996463;28;19942;-95
2022/07/04 06:47:44;;;;;;;;;;;27.70;58.40;;;;;;4994584;28;20334;-96
2022/07/04 06:50:10;;;;;;;;;;;27.80;59.90;;;;;;4996489;28;20324;-96
2022/07/04 06:52:36;;;;;;;;;;;27.90;59.50;;;;;;4996422;28;19937;-96
2022/07/04 06:55:01;;;;;;;;;;;28.10;59.00;;;;;;4996971;28;19937;-96
2022/07/04 06:57:27;;;;;;;;;;;28.20;56.60;;;;;;4996138;28;19950;-96
2022/07/04 06:59:53;;;;;;;;;;;28.20;55.90;;;;;;4995412;28;20067;-96
2022/07/04 07:02:18;;;;;;;;;;;28.30;56.20;;;;;;4995565;28;20436;-96
2022/07/04 07:04:44;;;;;;;;;;;28.30;55.00;;;;;;4995638;28;19944;-96
2022/07/04 07:07:09;;;;;;;;;;;28.40;55.10;;;;;;4995280;28;20463;-96
2022/07/04 07:09:35;;;;;;;;;;;28.50;54.20;;;;;;4995317;28;19939;-96
2022/07/04 07:12:01;;;;;;;;;;;28.60;53.80;;;;;;4995782;28;19946;-96
2022/07/04 07:14:27;;;;;;;;;;;28.70;53.50;;;;;;4996152;28;19952;-96
2022/07/04 07:16:52;;;;;;;;;;;28.80;53.50;;;;;;4996696;28;20384;-96
2022/07/04 07:19:18;;;;;;;;;;;28.90;53.30;;;;;;4979465;28;19967;-96
2022/07/04 07:21:43;;;;;;;;;;;28.90;52.70;;;;;;4996685;28;20391;-96
2022/07/04 07:24:09;;;;;;;;;;;29.00;52.00;;;;;;4997680;28;19940;-96
2022/07/04 07:26:34;;;;;;;;;;;29.10;52.20;;;;;;4997558;28;19955;-96
2022/07/04 07:29:00;;;;;;;;;;;29.20;52.90;;;;;;4995323;28;19944;-96
2022/07/04 07:31:26;;;;;;;;;;;29.40;53.50;;;;;;4994926;28;20037;-96
2022/07/04 07:33:51;;;;;;;;;;;29.40;51.30;;;;;;4995246;28;19965;-96
2022/07/04 07:36:17;;;;;;;;;;;29.50;52.70;;;;;;4995202;28;19938;-96
2022/07/04 07:38:43;;;;;;;;;;;29.70;51.40;;;;;;4995124;28;19987;-96
2022/07/04 07:41:09;;;;;;;;;;;29.80;53.10;;;;;;4995097;28;19965;-95
2022/07/04 07:43:34;;;;;;;;;;;29.90;50.10;;;;;;4994852;28;19944;-96
2022/07/04 07:46:00;;;;;;;;;;;29.90;49.50;;;;;;4994189;28;19949;-96
2022/07/04 07:48:26;;;;;;;;;;;30.00;52.20;;;;;;4994864;28;19977;-96
2022/07/04 07:50:52;;;;;;;;;;;30.10;50.50;;;;;;4994777;28;20373;-96
2022/07/04 07:53:17;;;;;;;;;;;30.10;51.50;;;;;;4994702;28;20021;-96
2022/07/04 07:55:43;;;;;;;;;;;30.20;50.50;;;;;;4994278;28;20345;-95
2022/07/04 07:58:11;;;;;;;;;;;30.20;51.20;;;;;;5008942;23;20012;-96
2022/07/04 08:00:37;;;;;;;;;;;30.30;51.60;;;;;;5014152;28;19969;-96
2022/07/04 08:05:47;;;;;;;;;;;30.40;50.30;;;;;;5014612;28;19951;-96
2022/07/04 08:08:12;;;;;;;;;;;30.50;46.90;;;;;;5014101;28;19942;-96
2022/07/04 08:10:38;;;;;;;;;;;30.50;48.70;;;;;;5013733;28;19945;-96
2022/07/04 08:13:04;;;;;;;;;;;30.60;50.10;;;;;;5014297;28;19947;-95
2022/07/04 08:15:30;;;;;;;;;;;30.70;47.60;;;;;;5014313;28;20035;-96
2022/07/04 08:17:56;;;;;;;;;;;30.70;48.70;;;;;;5014045;28;20028;-95
2022/07/04 08:20:21;;;;;;;;;;;30.60;45.50;;;;;;5014072;28;19964;-94
2022/07/04 08:22:47;;;;;;;;;;;30.70;47.90;;;;;;5014066;28;19993;-94
2022/07/04 08:25:14;;;;;;;;;;;30.80;46.60;;;;;;5016170;28;19943;-94
2022/07/04 08:27:40;;;;;;;;;;;31.00;46.00;;;;;;5033419;28;19960;-94
2022/07/04 08:30:07;;;;;;;;;;;31.00;46.20;;;;;;5033306;28;19944;-94
2022/07/04 08:32:33;;;;;;;;;;;31.10;45.90;;;;;;5033456;28;19939;-94
2022/07/04 08:34:58;;;;;;;;;;;31.10;45.70;;;;;;5033541;28;19949;-94
2022/07/04 08:37:24;;;;;;;;;;;31.20;45.70;;;;;;5028053;28;20035;-94
2022/07/04 08:39:50;;;;;;;;;;;31.20;46.10;;;;;;5008484;28;19973;-95
2022/07/04 08:42:16;;;;;;;;;;;31.20;44.60;;;;;;5013617;28;19949;-95
2022/07/04 08:44:45;;;;;;;;;;;31.30;45.80;;;;;;5013731;28;20032;-94
2022/07/04 08:47:16;;;;;;;;;;;31.30;47.50;;;;;;5013839;28;19941;-94
2022/07/04 08:49:44;;;;;;;;;;;31.40;45.00;;;;;;5013909;28;20389;-95
2022/07/04 08:52:10;;;;;;;;;;;31.50;44.50;;;;;;5013677;28;19950;-94
2022/07/04 09:00:06;;;;;;;;;;;31.80;44.40;;;;;;5013426;28;19980;-95
2022/07/04 09:02:32;;;;;;;;;;;31.90;42.60;;;;;;5012954;28;20400;-94
2022/07/04 09:04:59;;;;;;;;;;;31.90;42.60;;;;;;5013432;28;20405;-95
2022/07/04 09:07:26;;;;;;;;;;;32.00;41.20;;;;;;4978977;28;19951;-95
2022/07/04 09:09:52;;;;;;;;;;;32.00;41.00;;;;;;5013306;28;19945;-95
2022/07/04 09:12:18;;;;;;;;;;;32.00;40.30;;;;;;4994965;28;19945;-94
2022/07/04 09:14:43;;;;;;;;;;;32.00;39.90;;;;;;5013191;28;20331;-95
2022/07/04 09:17:09;;;;;;;;;;;32.10;39.70;;;;;;5027744;28;20461;-96
2022/07/04 09:19:35;;;;;;;;;;;32.20;40.60;;;;;;5032660;28;20076;-95
2022/07/04 09:22:02;;;;;;;;;;;32.10;42.00;;;;;;5032661;28;19944;-95
2022/07/04 09:24:46;;;;;;;;;;;32.20;42.10;;;;;;5036512;28;19944;-95
2022/07/04 09:27:12;;;;;;;;;;;32.20;40.70;;;;;;5036269;28;19940;-94
2022/07/04 09:29:51;;;;;;;;;;;32.30;38.40;;;;;;5018768;28;20076;-94
2022/07/04 09:32:24;;;;;;;;;;;32.30;38.50;;;;;;5035826;28;20387;-94
2022/07/04 09:34:55;;;;;;;;;;;32.40;39.10;;;;;;5035931;28;19953;-94
2022/07/04 09:37:21;;;;;;;;;;;32.60;37.90;;;;;;5036385;28;20406;-95
2022/07/04 09:39:46;;;;;;;;;;;32.70;37.80;;;;;;5036116;28;19989;-95
2022/07/04 09:42:12;;;;;;;;;;;32.90;37.60;;;;;;5035713;28;20004;-94
2022/07/04 09:44:44;;;;;;;;;;;33.10;37.70;;;;;;5036268;28;20422;-94
2022/07/04 09:47:19;;;;;;;;;;;33.20;39.30;;;;;;5036076;28;19991;-95
2022/07/04 09:49:57;;;;;;;;;;;33.20;35.50;;;;;;5036160;28;19943;-94
2022/07/04 09:52:23;;;;;;;;;;;33.30;36.30;;;;;;5036134;28;19937;-94
2022/07/04 09:54:48;;;;;;;;;;;33.50;35.90;;;;;;5035996;28;20031;-94
2022/07/04 09:57:21;;;;;;;;;;;33.60;37.30;;;;;;5035935;28;19945;-94
2022/07/04 09:59:46;;;;;;;;;;;33.60;36.70;;;;;;5018033;28;20429;-95
2022/07/04 10:02:14;;;;;;;;;;;33.70;37.30;;;;;;5034930;28;19941;-94
2022/07/04 10:04:47;;;;;;;;;;;33.90;38.20;;;;;;5014129;28;20400;-94
2022/07/04 10:07:29;;;;;;;;;;;34.10;34.30;;;;;;5015308;28;19944;-94
2022/07/04 10:09:55;;;;;;;;;;;34.00;35.80;;;;;;5021744;28;19999;-94
2022/07/04 10:12:27;;;;;;;;;;;33.90;36.40;;;;;;5035660;28;20007;-94
2022/07/04 10:14:54;;;;;;;;;;;33.90;35.40;;;;;;5035475;28;19953;-95
2022/07/04 10:17:19;;;;;;;;;;;33.80;35.20;;;;;;5035814;28;19941;-94
2022/07/04 10:19:45;;;;;;;;;;;33.90;35.70;;;;;;5035856;28;19960;-94
2022/07/04 10:22:11;;;;;;;;;;;33.90;35.80;;;;;;5035768;28;19945;-95
2022/07/04 10:24:36;;;;;;;;;;;33.80;34.30;;;;;;5035631;28;20399;-95
2022/07/04 10:27:02;;;;;;;;;;;33.70;33.60;;;;;;5035810;28;20462;-94
2022/07/04 10:29:27;;;;;;;;;;;33.80;32.60;;;;;;5035556;28;20307;-94
2022/07/04 10:31:53;;;;;;;;;;;33.90;33.20;;;;;;5035706;28;19944;-94
2022/07/04 10:34:19;;;;;;;;;;;34.10;35.90;;;;;;5035189;28;20413;-95
2022/07/04 10:36:51;;;;;;;;;;;34.20;38.70;;;;;;5035536;28;20048;-95
2022/07/04 10:39:21;;;;;;;;;;;34.40;36.30;;;;;;5035620;28;19963;-95
2022/07/04 10:41:58;;;;;;;;;;;34.40;36.50;;;;;;5035540;28;19938;-95
2022/07/04 10:44:25;;;;;;;;;;;34.60;37.30;;;;;;5035399;28;19945;-94
2022/07/04 10:46:51;;;;;;;;;;;34.80;36.80;;;;;;5035261;28;19950;-94
2022/07/04 10:49:18;;;;;;;;;;;34.80;37.90;;;;;;5035214;28;19943;-94
2022/07/04 10:51:50;;;;;;;;;;;34.70;37.80;;;;;;5035231;28;19938;-95
2022/07/04 10:54:32;;;;;;;;;;;34.50;35.90;;;;;;5035243;28;19941;-95
2022/07/04 10:57:07;;;;;;;;;;;34.20;36.20;;;;;;5034995;28;19939;-94
2022/07/04 10:59:32;;;;;;;;;;;33.80;39.30;;;;;;5017030;28;20154;-95
2022/07/04 11:02:03;;;;;;;;;;;33.50;36.50;;;;;;5035166;28;19979;-95
2022/07/04 11:04:44;;;;;;;;;;;33.50;37.30;;;;;;5035000;28;19952;-94
2022/07/04 11:07:09;;;;;;;;;;;33.40;39.20;;;;;;5035371;28;19970;-94
2022/07/04 11:09:35;;;;;;;;;;;33.20;39.90;;;;;;5034878;28;19936;-95
2022/07/04 11:12:03;;;;;;;;;;;33.20;40.00;;;;;;5034829;28;19968;-95
2022/07/04 11:14:35;;;;;;;;;;;33.40;40.60;;;;;;5034772;28;19966;-94
2022/07/04 11:17:01;;;;;;;;;;;33.40;40.80;;;;;;5034882;28;19985;-95
2022/07/04 11:19:29;;;;;;;;;;;33.50;40.80;;;;;;5034828;28;20051;-94
2022/07/04 11:21:55;;;;;;;;;;;33.70;40.50;;;;;;5034868;28;20341;-95
2022/07/04 11:24:21;;;;;;;;;;;34.00;39.60;;;;;;5034629;28;19936;-95
2022/07/04 11:26:47;;;;;;;;;;;34.20;39.80;;;;;;5034321;28;19959;-94
2022/07/04 11:29:13;;;;;;;;;;;34.40;40.10;;;;;;5034370;28;19950;-94
2022/07/04 11:31:40;;;;;;;;;;;34.40;39.20;;;;;;5034384;28;19949;-94
2022/07/04 11:34:06;;;;;;;;;;;34.50;38.40;;;;;;5034103;28;19971;-94
2022/07/04 11:36:31;;;;;;;;;;;34.50;38.10;;;;;;5034393;28;19935;-94
2022/07/04 11:38:58;;;;;;;;;;;34.40;36.90;;;;;;5034249;28;20034;-94
2022/07/04 11:47:21;;;;;;;;;;;34.80;37.90;;;;;;5034363;28;20463;-94
2022/07/04 11:49:46;;;;;;;;;;;34.80;36.80;;;;;;5020397;28;19983;-95
2022/07/04 11:52:12;;;;;;;;;;;34.70;36.30;;;;;;5034711;28;20343;-95
2022/07/04 11:54:39;;;;;;;;;;;34.50;35.50;;;;;;5034006;28;20025;-95
2022/07/04 11:57:24;;;;;;;;;;;34.50;37.70;;;;;;5033927;28;19936;-93
2022/07/04 11:59:52;;;;;;;;;;;34.40;38.10;;;;;;5033999;28;19979;-94
2022/07/04 12:02:18;;;;;;;;;;;34.60;36.30;;;;;;5016201;28;19944;-94
2022/07/04 12:04:45;;;;;;;;;;;34.70;35.80;;;;;;5015766;28;20315;-94
2022/07/04 12:07:15;;;;;;;;;;;34.90;33.20;;;;;;5033991;28;19969;-95
2022/07/04 12:09:41;;;;;;;;;;;35.20;32.50;;;;;;5034054;28;19992;-95
2022/07/04 12:12:07;;;;;;;;;;;35.80;29.70;;;;;;5033773;28;19942;-95
2022/07/04 12:14:32;;;;;;;;;;;36.20;29.30;;;;;;5033779;28;20032;-94
2022/07/04 12:17:12;;;;;;;;;;;36.20;30.50;;;;;;5033744;28;20292;-96
2022/07/04 12:19:38;;;;;;;;;;;36.10;30.70;;;;;;5033748;28;19955;-94
2022/07/04 12:22:03;;;;;;;;;;;35.90;29.30;;;;;;5033848;28;20476;-95
2022/07/04 12:24:39;;;;;;;;;;;35.90;31.20;;;;;;5016079;28;19970;-94
2022/07/04 12:27:05;;;;;;;;;;;35.80;28.80;;;;;;5033849;28;20053;-94
2022/07/04 12:29:30;;;;;;;;;;;35.80;27.10;;;;;;5033723;28;19989;-94
2022/07/04 12:31:56;;;;;;;;;;;36.00;28.50;;;;;;5033838;28;20381;-94
2022/07/04 12:34:22;;;;;;;;;;;36.20;31.20;;;;;;5033700;28;19986;-94
2022/07/04 12:36:49;;;;;;;;;;;35.80;32.00;;;;;;5033688;28;19947;-94
2022/07/04 12:39:47;;;;;;;;;;;35.70;32.70;;;;;;5033762;28;19945;-94
2022/07/04 12:42:16;;;;;;;;;;;35.60;32.30;;;;;;4979273;28;19992;-95
2022/07/04 12:44:43;;;;;;;;;;;35.10;33.10;;;;;;5033917;28;19983;-94
2022/07/04 12:47:09;;;;;;;;;;;34.90;33.60;;;;;;5033370;28;19942;-95
2022/07/04 12:49:35;;;;;;;;;;;34.30;34.30;;;;;;5033581;28;19938;-95
2022/07/04 12:52:11;;;;;;;;;;;34.10;35.10;;;;;;5033580;28;19963;-94
2022/07/04 12:54:38;;;;;;;;;;;34.00;35.90;;;;;;5015698;28;19946;-95
2022/07/04 12:57:14;;;;;;;;;;;34.00;35.10;;;;;;5035494;28;19951;-95
2022/07/04 12:59:40;;;;;;;;;;;34.10;35.50;;;;;;5037159;28;20055;-96
2022/07/04 13:02:06;;;;;;;;;;;34.10;35.50;;;;;;5019531;28;20419;-94
2022/07/04 13:04:32;;;;;;;;;;;34.20;36.20;;;;;;5037079;28;19942;-95
2022/07/04 13:06:59;;;;;;;;;;;34.80;34.90;;;;;;5037324;28;20285;-94
2022/07/04 13:09:24;;;;;;;;;;;35.20;32.20;;;;;;5037488;28;19996;-94
2022/07/04 13:14:34;;;;;;;;;;;36.80;30.40;;;;;;5037102;28;19959;-94
2022/07/04 13:17:00;;;;;;;;;;;37.60;28.50;;;;;;5037249;28;20308;-95
2022/07/04 13:19:25;;;;;;;;;;;38.60;29.00;;;;;;5037533;28;19988;-94
2022/07/04 13:21:52;;;;;;;;;;;39.60;26.70;;;;;;5036908;28;20396;-96
2022/07/04 13:24:19;;;;;;;;;;;40.50;26.80;;;;;;5037021;28;20002;-95
2022/07/04 13:26:45;;;;;;;;;;;41.10;25.10;;;;;;5037001;28;19981;-95
2022/07/04 13:29:10;;;;;;;;;;;41.50;23.50;;;;;;5036859;28;20440;-95
2022/07/04 13:31:36;;;;;;;;;;;41.90;23.70;;;;;;5036835;28;19963;-96
2022/07/04 13:34:01;;;;;;;;;;;42.20;23.80;;;;;;5036693;28;19941;-96
2022/07/04 13:36:27;;;;;;;;;;;42.10;23.50;;;;;;5018956;28;20439;-95
2022/07/04 13:38:53;;;;;;;;;;;42.10;23.40;;;;;;5036563;28;20012;-95
2022/07/04 13:41:18;;;;;;;;;;;41.70;23.30;;;;;;5036384;28;19955;-94
2022/07/04 13:43:44;;;;;;;;;;;42.10;23.90;;;;;;5036672;28;19937;-96
2022/07/04 13:46:09;;;;;;;;;;;42.10;24.00;;;;;;5036443;28;20454;-95
2022/07/04 13:48:35;;;;;;;;;;;42.20;23.30;;;;;;5036287;28;19948;-96
2022/07/04 13:51:00;;;;;;;;;;;41.80;23.40;;;;;;5036613;28;19941;-96
2022/07/04 13:53:26;;;;;;;;;;;42.30;22.90;;;;;;5018636;28;20416;-95
2022/07/04 13:55:52;;;;;;;;;;;42.50;22.40;;;;;;5036266;28;20422;-96
2022/07/04 13:58:17;;;;;;;;;;;42.70;21.90;;;;;;5036052;28;20447;-96
2022/07/04 14:00:44;;;;;;;;;;;43.30;20.90;;;;;;5036228;28;20329;-96
2022/07/04 14:03:13;;;;;;;;;;;44.60;20.20;;;;;;5036112;28;19950;-96
2022/07/04 14:05:42;;;;;;;;;;;45.50;20.40;;;;;;5035919;28;20037;-96
2022/07/04 14:08:08;;;;;;;;;;;45.70;19.70;;;;;;5035341;28;19940;-96
2022/07/04 14:10:33;;;;;;;;;;;45.60;19.60;;;;;;5036143;28;20035;-96
2022/07/04 14:12:59;;;;;;;;;;;45.80;20.00;;;;;;5036058;28;19945;-96
2022/07/04 14:15:24;;;;;;;;;;;45.80;19.70;;;;;;5035797;28;20312;-95
2022/07/04 14:17:50;;;;;;;;;;;46.10;18.70;;;;;;5035827;28;19938;-95
2022/07/04 14:20:18;;;;;;;;;;;46.00;19.10;;;;;;5035718;28;20018;-96
2022/07/04 14:22:43;;;;;;;;;;;46.20;19.20;;;;;;5035686;28;20313;-96
2022/07/04 14:25:09;;;;;;;;;;;46.70;18.60;;;;;;5035587;28;19937;-96
2022/07/04 14:27:35;;;;;;;;;;;46.90;18.50;;;;;;5035747;28;19942;-96
2022/07/04 14:30:00;;;;;;;;;;;47.40;17.70;;;;;;5017805;28;19948;-96
2022/07/04 14:32:26;;;;;;;;;;;47.70;17.10;;;;;;5035096;28;19949;-96
2022/07/04 14:34:52;;;;;;;;;;;46.50;18.20;;;;;;5035185;28;20031;-96
2022/07/04 14:37:17;;;;;;;;;;;46.00;19.50;;;;;;5035158;28;19943;-96
2022/07/04 14:39:43;;;;;;;;;;;45.20;19.80;;;;;;5017349;28;19982;-96